Time;durP1;ratioP1;P1;durP2;ratioP2;P2;SDS_P1;SDS_P2;PMS_P1;PMS_P2;Temp;Humidity;BMP_temperature;BMP_pressure;BME280_temperature;BME280_humidity;BME280_pressure;Samples;Min_cycle;Max_cycle;Signal;HPM_P1;HPM_P2
2023/05/04 00:01:35;;;;;;;57.90;2.50;;;;;;;;;;5072716;28;20942;-68
2023/05/04 00:04:03;;;;;;;57.07;2.60;;;;;;;;;;5075800;28;20447;-68
2023/05/04 00:06:30;;;;;;;57.37;2.30;;;;;;;;;;5076131;28;20451;-68
2023/05/04 00:08:57;;;;;;;57.47;2.27;;;;;;;;;;5075320;28;20479;-68
2023/05/04 00:11:24;;;;;;;57.47;2.47;;;;;;;;;;5075652;28;20470;-68
2023/05/04 00:13:53;;;;;;;57.23;2.20;;;;;;;;;;5076016;28;20815;-68
2023/05/04 00:16:20;;;;;;;57.53;2.57;;;;;;;;;;5075801;28;20473;-68
2023/05/04 00:18:47;;;;;;;56.77;2.43;;;;;;;;;;5075292;28;20451;-68
2023/05/04 00:21:15;;;;;;;57.60;2.70;;;;;;;;;;5075219;28;20481;-68
2023/05/04 00:23:42;;;;;;;57.27;2.70;;;;;;;;;;5075298;28;20473;-68
2023/05/04 00:26:09;;;;;;;57.13;2.47;;;;;;;;;;5075330;28;20457;-68
2023/05/04 00:28:36;;;;;;;57.40;2.80;;;;;;;;;;5074700;28;20483;-68
2023/05/04 00:31:04;;;;;;;57.50;2.63;;;;;;;;;;5075366;28;20474;-68
2023/05/04 00:33:31;;;;;;;57.33;2.40;;;;;;;;;;5075296;28;20835;-68
2023/05/04 00:35:59;;;;;;;57.80;2.80;;;;;;;;;;5075197;28;20451;-68
2023/05/04 00:38:26;;;;;;;57.60;3.50;;;;;;;;;;5074876;28;20443;-68
2023/05/04 00:40:53;;;;;;;57.13;2.40;;;;;;;;;;5074799;28;20627;-68
2023/05/04 00:43:20;;;;;;;57.60;2.73;;;;;;;;;;5074840;28;20823;-68
2023/05/04 00:45:47;;;;;;;56.60;2.10;;;;;;;;;;5075042;28;20447;-68
2023/05/04 00:48:16;;;;;;;57.60;2.30;;;;;;;;;;5074701;28;20485;-68
2023/05/04 00:50:43;;;;;;;57.00;2.60;;;;;;;;;;5074469;28;20467;-68
2023/05/04 00:53:11;;;;;;;58.87;3.00;;;;;;;;;;5074750;28;20458;-68
2023/05/04 00:55:39;;;;;;;56.83;2.47;;;;;;;;;;5074696;28;20797;-68
2023/05/04 00:58:07;;;;;;;57.37;2.17;;;;;;;;;;5074548;28;20458;-68
2023/05/04 01:00:35;;;;;;;57.47;2.47;;;;;;;;;;5074498;28;20475;-68
2023/05/04 01:03:02;;;;;;;57.27;2.03;;;;;;;;;;5074650;28;20447;-68
2023/05/04 01:05:32;;;;;;;57.70;2.50;;;;;;;;;;5074619;28;20444;-68
2023/05/04 01:08:04;;;;;;;57.13;2.40;;;;;;;;;;5072620;28;20447;-68
2023/05/04 01:10:35;;;;;;;57.37;2.90;;;;;;;;;;5074308;28;20467;-68
2023/05/04 01:13:05;;;;;;;57.17;2.20;;;;;;;;;;5073185;28;20494;-68
2023/05/04 01:15:32;;;;;;;57.23;2.27;;;;;;;;;;5074383;28;20612;-68
2023/05/04 01:17:59;;;;;;;59.13;2.80;;;;;;;;;;5074005;28;20454;-68
2023/05/04 01:20:26;;;;;;;57.27;2.47;;;;;;;;;;5074155;28;20475;-68
2023/05/04 01:22:55;;;;;;;57.30;2.40;;;;;;;;;;5074418;28;20458;-68
2023/05/04 01:25:24;;;;;;;57.47;2.20;;;;;;;;;;5074090;28;20963;-68
2023/05/04 01:27:56;;;;;;;57.27;2.60;;;;;;;;;;5074089;28;20450;-68
2023/05/04 01:30:24;;;;;;;56.80;2.47;;;;;;;;;;5073633;28;20510;-68
2023/05/04 01:32:52;;;;;;;56.40;2.40;;;;;;;;;;5074210;28;20444;-68
2023/05/04 01:35:19;;;;;;;57.13;2.60;;;;;;;;;;5074133;28;20447;-68
2023/05/04 01:37:47;;;;;;;57.50;2.40;;;;;;;;;;5074159;28;20453;-68
2023/05/04 01:40:15;;;;;;;57.07;2.20;;;;;;;;;;5073528;28;20474;-68
2023/05/04 01:42:42;;;;;;;57.70;2.57;;;;;;;;;;5074338;28;20513;-68
2023/05/04 01:45:10;;;;;;;57.03;2.60;;;;;;;;;;5073710;28;20952;-68
2023/05/04 01:47:37;;;;;;;57.27;2.40;;;;;;;;;;5073862;28;20534;-68
2023/05/04 01:50:05;;;;;;;56.97;2.33;;;;;;;;;;5073219;28;20493;-68
2023/05/04 01:52:32;;;;;;;56.90;2.77;;;;;;;;;;5073619;28;20932;-68
2023/05/04 01:54:59;;;;;;;57.70;2.57;;;;;;;;;;5073707;28;20443;-68
2023/05/04 01:57:28;;;;;;;58.77;4.13;;;;;;;;;;5073595;28;20453;-68
2023/05/04 01:59:55;;;;;;;57.43;2.70;;;;;;;;;;5073486;28;20486;-68
2023/05/04 02:02:22;;;;;;;57.40;2.50;;;;;;;;;;5073636;28;20449;-68
2023/05/04 02:04:49;;;;;;;57.67;2.80;;;;;;;;;;5073529;28;20469;-68
2023/05/04 02:07:16;;;;;;;57.53;2.37;;;;;;;;;;5073499;28;20455;-68
2023/05/04 02:09:44;;;;;;;57.03;2.50;;;;;;;;;;5072898;28;20490;-68
2023/05/04 02:12:11;;;;;;;56.97;2.43;;;;;;;;;;5073645;28;20451;-68
2023/05/04 02:14:39;;;;;;;57.13;2.80;;;;;;;;;;5073381;28;20450;-68
2023/05/04 02:17:07;;;;;;;56.77;2.60;;;;;;;;;;5073299;28;20443;-68
2023/05/04 02:19:34;;;;;;;57.67;2.73;;;;;;;;;;5072876;28;20460;-68
2023/05/04 02:22:01;;;;;;;57.70;3.30;;;;;;;;;;5073139;28;20466;-68
2023/05/04 02:24:28;;;;;;;57.17;2.63;;;;;;;;;;5072506;28;20466;-68
2023/05/04 02:26:55;;;;;;;57.23;2.53;;;;;;;;;;5073037;28;20451;-68
2023/05/04 02:29:22;;;;;;;56.97;2.50;;;;;;;;;;5072339;28;20486;-68
2023/05/04 02:31:51;;;;;;;56.57;2.40;;;;;;;;;;5073029;28;20443;-68
2023/05/04 02:34:18;;;;;;;57.00;2.63;;;;;;;;;;5072940;28;20847;-68
2023/05/04 02:36:45;;;;;;;57.70;2.40;;;;;;;;;;5073299;28;20454;-68
2023/05/04 02:39:12;;;;;;;57.77;2.80;;;;;;;;;;5072182;28;20451;-68
2023/05/04 02:41:40;;;;;;;56.80;2.73;;;;;;;;;;5072651;28;20453;-68
2023/05/04 02:44:07;;;;;;;57.77;2.53;;;;;;;;;;5072772;28;20448;-68
2023/05/04 02:46:34;;;;;;;57.07;2.43;;;;;;;;;;5072771;28;20589;-69
2023/05/04 02:49:03;;;;;;;57.80;2.67;;;;;;;;;;5072278;28;20487;-69
2023/05/04 02:51:30;;;;;;;57.33;2.50;;;;;;;;;;5072505;28;20477;-69
2023/05/04 02:53:57;;;;;;;57.37;3.20;;;;;;;;;;5072501;28;20748;-69
2023/05/04 02:56:24;;;;;;;57.67;3.20;;;;;;;;;;5072467;28;20965;-69
2023/05/04 02:58:51;;;;;;;56.50;2.60;;;;;;;;;;5072302;28;20450;-69
2023/05/04 03:01:18;;;;;;;57.77;2.50;;;;;;;;;;5072413;28;20455;-69
2023/05/04 03:03:45;;;;;;;57.37;2.77;;;;;;;;;;5072440;28;20948;-69
2023/05/04 03:06:13;;;;;;;56.97;2.50;;;;;;;;;;5072335;28;20443;-69
2023/05/04 03:08:41;;;;;;;56.77;2.20;;;;;;;;;;5072169;28;20816;-69
2023/05/04 03:11:08;;;;;;;57.07;2.50;;;;;;;;;;5072368;28;20479;-69
2023/05/04 03:13:35;;;;;;;57.27;2.20;;;;;;;;;;5072364;28;20816;-69
2023/05/04 03:16:02;;;;;;;57.73;2.50;;;;;;;;;;5072272;28;20443;-69
2023/05/04 03:18:29;;;;;;;57.67;2.40;;;;;;;;;;5071971;28;20620;-69
2023/05/04 03:20:56;;;;;;;58.30;3.13;;;;;;;;;;5071895;28;20843;-69
2023/05/04 03:23:24;;;;;;;57.37;2.60;;;;;;;;;;5072210;28;20447;-69
2023/05/04 03:25:52;;;;;;;57.37;2.60;;;;;;;;;;5071902;28;20462;-69
2023/05/04 03:28:19;;;;;;;57.00;2.58;;;;;;;;;;5071799;28;20450;-69
2023/05/04 03:30:46;;;;;;;57.37;2.63;;;;;;;;;;5071554;28;20282;-69
2023/05/04 03:33:13;;;;;;;57.57;2.60;;;;;;;;;;5071897;28;20454;-69
2023/05/04 03:35:41;;;;;;;57.60;2.50;;;;;;;;;;5071583;28;20819;-69
2023/05/04 03:38:09;;;;;;;57.70;2.53;;;;;;;;;;5071822;28;20454;-69
2023/05/04 03:40:37;;;;;;;58.47;3.63;;;;;;;;;;5071599;28;20471;-69
2023/05/04 03:43:05;;;;;;;57.53;2.60;;;;;;;;;;5071732;28;20451;-69
2023/05/04 03:45:32;;;;;;;57.47;2.50;;;;;;;;;;5071828;28;20447;-69
2023/05/04 03:47:59;;;;;;;57.27;2.60;;;;;;;;;;5071698;28;20453;-69
2023/05/04 03:50:26;;;;;;;57.70;2.80;;;;;;;;;;5071422;28;20554;-69
2023/05/04 03:52:53;;;;;;;57.90;3.50;;;;;;;;;;5071963;28;20816;-69
2023/05/04 03:55:20;;;;;;;57.70;2.40;;;;;;;;;;5071845;28;20447;-69
2023/05/04 03:57:48;;;;;;;57.57;2.37;;;;;;;;;;5071620;28;20206;-69
2023/05/04 04:00:16;;;;;;;57.27;2.50;;;;;;;;;;5071356;28;20537;-69
2023/05/04 04:02:43;;;;;;;57.80;2.80;;;;;;;;;;5071600;28;20453;-69
2023/05/04 04:05:10;;;;;;;57.07;2.47;;;;;;;;;;5071542;28;20458;-69
2023/05/04 04:07:38;;;;;;;57.27;2.40;;;;;;;;;;5071783;28;20823;-69
2023/05/04 04:10:05;;;;;;;57.57;2.60;;;;;;;;;;5071027;28;20495;-69
2023/05/04 04:12:32;;;;;;;57.43;2.90;;;;;;;;;;5071560;28;20455;-69
2023/05/04 04:15:00;;;;;;;57.80;2.60;;;;;;;;;;5071381;28;20819;-69
2023/05/04 04:17:28;;;;;;;57.40;3.77;;;;;;;;;;5071691;28;20445;-69
2023/05/04 04:19:55;;;;;;;57.27;2.30;;;;;;;;;;5070822;28;20470;-69
2023/05/04 04:22:22;;;;;;;58.33;3.27;;;;;;;;;;5071605;28;20815;-69
2023/05/04 04:24:49;;;;;;;57.47;2.50;;;;;;;;;;5071391;28;20471;-69
2023/05/04 04:27:16;;;;;;;57.27;3.07;;;;;;;;;;5071835;28;20451;-69
2023/05/04 04:29:43;;;;;;;57.17;2.60;;;;;;;;;;5070768;28;21023;-69
2023/05/04 04:32:12;;;;;;;57.40;2.70;;;;;;;;;;5071487;28;20458;-69
2023/05/04 04:34:39;;;;;;;56.50;2.70;;;;;;;;;;5071366;28;20944;-69
2023/05/04 04:37:06;;;;;;;57.40;2.63;;;;;;;;;;5071407;28;20458;-69
2023/05/04 04:39:33;;;;;;;58.00;3.03;;;;;;;;;;5070898;28;20469;-69
2023/05/04 04:42:01;;;;;;;57.10;2.60;;;;;;;;;;5071089;28;20458;-69
2023/05/04 04:44:28;;;;;;;57.77;2.60;;;;;;;;;;5071473;28;20451;-69
2023/05/04 04:46:55;;;;;;;57.37;2.60;;;;;;;;;;5071459;28;20494;-69
2023/05/04 04:49:24;;;;;;;56.83;2.57;;;;;;;;;;5074392;28;20483;-69
2023/05/04 04:51:51;;;;;;;57.73;2.80;;;;;;;;;;5074843;28;21010;-69
2023/05/04 04:54:19;;;;;;;57.17;2.80;;;;;;;;;;5074832;28;20447;-69
2023/05/04 04:56:46;;;;;;;57.57;2.40;;;;;;;;;;5074693;28;20546;-69
2023/05/04 04:59:14;;;;;;;56.92;2.28;;;;;;;;;;5074292;28;20443;-69
2023/05/04 05:01:41;;;;;;;57.50;2.40;;;;;;;;;;5074695;28;20209;-69
2023/05/04 05:04:08;;;;;;;57.70;2.77;;;;;;;;;;5074982;28;20532;-69
2023/05/04 05:06:37;;;;;;;57.23;2.40;;;;;;;;;;5074636;28;20952;-69
2023/05/04 05:09:04;;;;;;;56.93;2.37;;;;;;;;;;5074035;28;20483;-69
2023/05/04 05:11:32;;;;;;;57.13;2.40;;;;;;;;;;5074366;28;20569;-69
2023/05/04 05:14:00;;;;;;;56.93;2.20;;;;;;;;;;5074464;28;20447;-69
2023/05/04 05:16:27;;;;;;;57.50;2.07;;;;;;;;;;5074612;28;20443;-69
2023/05/04 05:18:54;;;;;;;57.40;2.20;;;;;;;;;;5074005;28;20446;-69
2023/05/04 05:21:21;;;;;;;57.57;3.20;;;;;;;;;;5074355;28;20842;-69
2023/05/04 05:23:49;;;;;;;57.57;3.27;;;;;;;;;;5074102;28;20451;-69
2023/05/04 05:26:17;;;;;;;57.60;2.77;;;;;;;;;;5074492;28;20457;-69
2023/05/04 05:28:44;;;;;;;56.97;2.37;;;;;;;;;;5073864;28;20970;-69
2023/05/04 05:31:11;;;;;;;57.13;2.50;;;;;;;;;;5074130;28;20497;-69
2023/05/04 05:33:38;;;;;;;56.97;2.70;;;;;;;;;;5074095;28;20451;-69
2023/05/04 05:36:05;;;;;;;57.27;2.27;;;;;;;;;;5073957;28;20944;-69
2023/05/04 05:38:32;;;;;;;56.83;2.20;;;;;;;;;;5073777;28;20470;-69
2023/05/04 05:41:01;;;;;;;57.30;2.73;;;;;;;;;;5074107;28;20464;-69
2023/05/04 05:43:28;;;;;;;57.10;2.17;;;;;;;;;;5074109;28;20505;-69
2023/05/04 05:45:55;;;;;;;57.23;2.40;;;;;;;;;;5073822;28;20940;-69
2023/05/04 05:48:22;;;;;;;57.30;2.90;;;;;;;;;;5073815;28;20448;-69
2023/05/04 05:50:49;;;;;;;57.03;2.57;;;;;;;;;;5073274;28;20483;-68
2023/05/04 05:53:16;;;;;;;56.93;2.47;;;;;;;;;;5073722;28;20443;-69
2023/05/04 05:55:43;;;;;;;57.47;3.23;;;;;;;;;;5073764;28;20447;-69
2023/05/04 05:58:12;;;;;;;56.67;2.40;;;;;;;;;;5073679;28;20477;-69
2023/05/04 06:00:39;;;;;;;57.07;2.30;;;;;;;;;;5072659;28;20636;-69
2023/05/04 06:03:06;;;;;;;58.00;3.40;;;;;;;;;;5073587;28;20453;-69
2023/05/04 06:05:34;;;;;;;57.00;2.10;;;;;;;;;;5073369;28;20461;-69
2023/05/04 06:08:01;;;;;;;56.97;2.93;;;;;;;;;;5073512;28;20830;-69
2023/05/04 06:10:28;;;;;;;57.13;2.80;;;;;;;;;;5073373;28;20491;-69
2023/05/04 06:12:55;;;;;;;59.17;4.50;;;;;;;;;;5073355;28;20960;-69
2023/05/04 06:15:24;;;;;;;56.97;2.50;;;;;;;;;;5073340;28;20462;-69
2023/05/04 06:17:51;;;;;;;58.37;2.90;;;;;;;;;;5073191;28;20447;-69
2023/05/04 06:20:18;;;;;;;58.00;3.43;;;;;;;;;;5072722;28;20995;-69
2023/05/04 06:22:45;;;;;;;57.33;2.50;;;;;;;;;;5073360;28;20447;-69
2023/05/04 06:25:12;;;;;;;56.93;2.33;;;;;;;;;;5073025;28;20846;-67
2023/05/04 06:27:39;;;;;;;57.80;4.10;;;;;;;;;;5073078;28;20447;-67
2023/05/04 06:30:07;;;;;;;56.97;2.17;;;;;;;;;;5072558;28;20482;-68
2023/05/04 06:32:35;;;;;;;58.30;3.87;;;;;;;;;;5072845;28;20530;-68
2023/05/04 06:35:03;;;;;;;56.77;2.40;;;;;;;;;;5073093;28;20530;-68
2023/05/04 06:37:30;;;;;;;58.23;2.93;;;;;;;;;;5073019;28;20854;-67
2023/05/04 06:39:57;;;;;;;58.00;3.03;;;;;;;;;;5072250;28;20467;-68
2023/05/04 06:42:24;;;;;;;68.60;3.50;;;;;;;;;;5072837;28;20465;-68
2023/05/04 06:44:52;;;;;;;57.27;2.30;;;;;;;;;;5072703;28;20443;-68
2023/05/04 06:47:19;;;;;;;57.27;2.70;;;;;;;;;;5072700;28;20466;-68
2023/05/04 06:49:47;;;;;;;57.83;3.10;;;;;;;;;;5072075;28;20998;-68
2023/05/04 06:52:14;;;;;;;57.40;2.37;;;;;;;;;;5072474;28;20448;-68
2023/05/04 06:54:41;;;;;;;57.57;3.30;;;;;;;;;;5072338;28;20462;-68
2023/05/04 06:57:08;;;;;;;60.23;3.20;;;;;;;;;;5072535;28;20432;-67
2023/05/04 06:59:36;;;;;;;57.50;2.50;;;;;;;;;;5071944;28;20463;-68
2023/05/04 07:02:03;;;;;;;59.20;2.50;;;;;;;;;;5072339;28;20443;-68
2023/05/04 07:04:30;;;;;;;57.70;3.57;;;;;;;;;;5072674;28;20455;-68
2023/05/04 07:06:58;;;;;;;57.47;2.30;;;;;;;;;;5072444;28;20443;-68
2023/05/04 07:09:25;;;;;;;57.30;2.60;;;;;;;;;;5072284;28;20472;-68
2023/05/04 07:11:52;;;;;;;56.93;2.13;;;;;;;;;;5072082;28;20494;-68
2023/05/04 07:14:20;;;;;;;57.13;2.10;;;;;;;;;;5072108;28;20451;-68
2023/05/04 07:16:47;;;;;;;57.30;2.70;;;;;;;;;;5072385;28;20805;-68
2023/05/04 07:19:14;;;;;;;57.57;2.60;;;;;;;;;;5071784;28;20529;-68
2023/05/04 07:21:43;;;;;;;57.20;2.40;;;;;;;;;;5072034;28;20538;-68
2023/05/04 07:24:11;;;;;;;57.60;2.80;;;;;;;;;;5071848;28;20466;-68
2023/05/04 07:26:38;;;;;;;57.27;2.20;;;;;;;;;;5071906;28;20449;-68
2023/05/04 07:29:05;;;;;;;57.57;2.80;;;;;;;;;;5071528;28;20451;-68
2023/05/04 07:31:33;;;;;;;57.57;3.00;;;;;;;;;;5072044;28;20483;-68
2023/05/04 07:34:00;;;;;;;57.97;2.77;;;;;;;;;;5071828;28;20459;-69
2023/05/04 07:36:27;;;;;;;57.17;2.30;;;;;;;;;;5071971;28;20444;-69
2023/05/04 07:38:55;;;;;;;58.87;3.00;;;;;;;;;;5071513;28;20476;-68
2023/05/04 07:41:23;;;;;;;57.07;2.33;;;;;;;;;;5071855;28;20809;-69
2023/05/04 07:43:50;;;;;;;57.17;2.83;;;;;;;;;;5071741;28;20459;-69
2023/05/04 07:46:17;;;;;;;57.50;2.70;;;;;;;;;;5071705;28;20974;-68
2023/05/04 07:48:44;;;;;;;59.30;3.47;;;;;;;;;;5071539;28;20450;-69
2023/05/04 07:51:15;;;;;;;57.77;2.80;;;;;;;;;;5071704;28;20487;-69
2023/05/04 07:53:42;;;;;;;57.23;2.47;;;;;;;;;;5071562;28;20447;-68
2023/05/04 07:56:11;;;;;;;57.23;2.40;;;;;;;;;;5071922;28;20458;-69
2023/05/04 07:58:40;;;;;;;58.87;2.50;;;;;;;;;;5072373;28;20447;-68
2023/05/04 08:01:07;;;;;;;57.10;2.20;;;;;;;;;;5072329;28;20490;-69
2023/05/04 08:03:34;;;;;;;57.50;2.83;;;;;;;;;;5071738;28;20891;-69
2023/05/04 08:06:01;;;;;;;58.27;2.90;;;;;;;;;;5071611;28;20447;-69
2023/05/04 08:08:28;;;;;;;57.60;2.93;;;;;;;;;;5071769;28;20522;-68
2023/05/04 08:10:55;;;;;;;57.00;2.13;;;;;;;;;;5071496;28;20483;-69
2023/05/04 08:13:22;;;;;;;57.47;2.60;;;;;;;;;;5071534;28;21021;-69
2023/05/04 08:15:51;;;;;;;57.07;2.20;;;;;;;;;;5071564;28;20454;-69
2023/05/04 08:18:18;;;;;;;57.40;2.47;;;;;;;;;;5071391;28;20455;-69
2023/05/04 08:20:45;;;;;;;56.90;2.47;;;;;;;;;;5071037;28;20575;-69
2023/05/04 08:23:12;;;;;;;57.30;2.40;;;;;;;;;;5073834;28;20439;-69
2023/05/04 08:25:39;;;;;;;57.00;2.40;;;;;;;;;;5075350;28;20867;-69
2023/05/04 08:28:06;;;;;;;57.23;2.60;;;;;;;;;;5075393;28;20447;-69
2023/05/04 08:30:34;;;;;;;56.93;2.33;;;;;;;;;;5074964;28;20493;-69
2023/05/04 08:33:02;;;;;;;57.27;2.70;;;;;;;;;;5075254;28;20454;-69
2023/05/04 08:35:30;;;;;;;57.17;2.67;;;;;;;;;;5075099;28;20449;-69
2023/05/04 08:37:57;;;;;;;57.53;2.80;;;;;;;;;;5075232;28;20453;-68
2023/05/04 08:40:24;;;;;;;63.00;4.53;;;;;;;;;;5074677;28;21004;-69
2023/05/04 08:42:51;;;;;;;57.80;2.70;;;;;;;;;;5075089;28;20451;-69
2023/05/04 08:45:18;;;;;;;58.00;3.63;;;;;;;;;;5075004;28;20443;-69
2023/05/04 08:47:45;;;;;;;57.10;2.43;;;;;;;;;;5074931;28;20956;-69
2023/05/04 08:50:14;;;;;;;57.17;2.30;;;;;;;;;;5074428;28;20471;-69
2023/05/04 08:52:45;;;;;;;59.80;3.90;;;;;;;;;;5074933;28;20483;-69
2023/05/04 08:55:12;;;;;;;56.80;2.30;;;;;;;;;;5074759;28;20451;-69
2023/05/04 08:57:42;;;;;;;57.80;3.23;;;;;;;;;;5074725;28;20982;-69
2023/05/04 09:00:11;;;;;;;58.90;2.47;;;;;;;;;;5074431;28;20851;-69
2023/05/04 09:02:38;;;;;;;57.00;2.40;;;;;;;;;;5074553;28;20508;-69
2023/05/04 09:05:06;;;;;;;57.20;2.30;;;;;;;;;;5074866;28;20448;-69
2023/05/04 09:07:35;;;;;;;57.00;2.30;;;;;;;;;;5074555;28;20451;-69
2023/05/04 09:10:02;;;;;;;57.70;3.00;;;;;;;;;;5074381;28;20467;-69
2023/05/04 09:12:30;;;;;;;57.27;2.60;;;;;;;;;;5074589;28;20547;-69
2023/05/04 09:15:00;;;;;;;57.17;2.50;;;;;;;;;;5074468;28;20550;-69
2023/05/04 09:17:28;;;;;;;57.17;2.50;;;;;;;;;;5074848;28;20447;-69
2023/05/04 09:19:58;;;;;;;57.17;2.70;;;;;;;;;;5074026;28;21003;-69
2023/05/04 09:22:26;;;;;;;61.63;4.73;;;;;;;;;;5074265;28;20443;-69
2023/05/04 09:24:55;;;;;;;57.57;2.70;;;;;;;;;;5074111;28;20465;-69
2023/05/04 09:27:22;;;;;;;57.17;2.20;;;;;;;;;;5074256;28;20459;-68
2023/05/04 09:29:55;;;;;;;56.97;2.30;;;;;;;;;;5073802;28;21066;-69
2023/05/04 09:32:22;;;;;;;57.33;2.77;;;;;;;;;;5074007;28;20490;-69
2023/05/04 09:34:50;;;;;;;57.00;2.40;;;;;;;;;;5072955;28;20451;-69
2023/05/04 09:37:19;;;;;;;57.30;2.40;;;;;;;;;;5074134;28;20469;-69
2023/05/04 09:39:50;;;;;;;57.23;2.37;;;;;;;;;;5073693;28;20471;-69
2023/05/04 09:42:20;;;;;;;57.37;2.60;;;;;;;;;;5073974;28;20443;-69
2023/05/04 09:44:48;;;;;;;57.60;2.63;;;;;;;;;;5073949;28;20447;-69
2023/05/04 09:47:17;;;;;;;56.83;2.13;;;;;;;;;;5073854;28;20462;-69
2023/05/04 09:49:44;;;;;;;57.03;2.27;;;;;;;;;;5073413;28;21112;-69
2023/05/04 09:52:12;;;;;;;57.30;3.00;;;;;;;;;;5073749;28;20489;-69
2023/05/04 09:54:40;;;;;;;57.60;3.03;;;;;;;;;;5073680;28;20447;-69
2023/05/04 09:57:11;;;;;;;57.37;2.50;;;;;;;;;;5073961;28;20866;-69
2023/05/04 09:59:40;;;;;;;57.30;2.47;;;;;;;;;;5073447;28;20503;-69
2023/05/04 10:02:08;;;;;;;56.87;2.40;;;;;;;;;;5073728;28;20519;-69
2023/05/04 10:04:35;;;;;;;57.67;3.00;;;;;;;;;;5073575;28;20901;-69
2023/05/04 10:07:03;;;;;;;57.03;2.50;;;;;;;;;;5073410;28;20540;-69
2023/05/04 10:09:31;;;;;;;57.20;2.30;;;;;;;;;;5073240;28;20972;-69
2023/05/04 10:12:00;;;;;;;57.70;2.20;;;;;;;;;;5073499;28;20483;-69
2023/05/04 10:14:28;;;;;;;57.57;2.67;;;;;;;;;;5073434;28;20443;-66
2023/05/04 10:17:00;;;;;;;56.97;2.50;;;;;;;;;;5073189;28;21015;-66
2023/05/04 10:19:41;;;;;;;57.30;2.40;;;;;;;;;;5072724;28;20467;-66
2023/05/04 10:22:16;;;;;;;57.07;2.27;;;;;;;;;;5073184;28;20455;-66
2023/05/04 10:24:50;;;;;;;58.40;2.23;;;;;;;;;;5073077;28;20463;-66
2023/05/04 10:27:19;;;;;;;56.90;2.47;;;;;;;;;;5073188;28;20446;-69
2023/05/04 10:29:49;;;;;;;56.53;2.10;;;;;;;;;;5072641;28;20991;-69
2023/05/04 10:32:21;;;;;;;57.70;2.87;;;;;;;;;;5072848;28;20898;-68
2023/05/04 10:34:48;;;;;;;56.90;2.23;;;;;;;;;;5073044;28;20444;-69
2023/05/04 10:37:20;;;;;;;56.60;2.43;;;;;;;;;;5073008;28;20454;-69
2023/05/04 10:39:54;;;;;;;56.93;2.17;;;;;;;;;;5072556;28;20470;-69
2023/05/04 10:42:21;;;;;;;56.90;2.10;;;;;;;;;;5072765;28;20456;-69
2023/05/04 10:44:53;;;;;;;59.00;2.60;;;;;;;;;;5072407;28;20454;-69
2023/05/04 10:47:32;;;;;;;56.17;1.90;;;;;;;;;;5072635;28;20990;-69
2023/05/04 10:50:03;;;;;;;56.63;1.97;;;;;;;;;;5072404;28;20640;-67
2023/05/04 10:52:31;;;;;;;56.77;2.47;;;;;;;;;;5072451;28;20566;-66
2023/05/04 10:55:02;;;;;;;56.80;2.10;;;;;;;;;;5072331;28;20456;-67
2023/05/04 10:57:30;;;;;;;56.90;2.40;;;;;;;;;;5072725;28;20483;-68
2023/05/04 10:59:57;;;;;;;56.60;2.10;;;;;;;;;;5072063;28;20474;-68
2023/05/04 11:02:25;;;;;;;57.27;2.47;;;;;;;;;;5072424;28;20530;-69
2023/05/04 11:05:03;;;;;;;56.90;2.60;;;;;;;;;;5072378;28;20451;-68
2023/05/04 11:07:35;;;;;;;56.87;2.20;;;;;;;;;;5072254;28;20443;-68
2023/05/04 11:10:02;;;;;;;57.27;2.50;;;;;;;;;;5071690;28;20554;-68
2023/05/04 11:12:29;;;;;;;57.10;2.43;;;;;;;;;;5072400;28;20483;-68
2023/05/04 11:15:04;;;;;;;56.70;1.80;;;;;;;;;;5072358;28;20443;-68
2023/05/04 11:17:31;;;;;;;56.80;2.43;;;;;;;;;;5072253;28;20447;-68
2023/05/04 11:19:59;;;;;;;56.90;2.37;;;;;;;;;;5071710;28;20473;-69
2023/05/04 11:22:28;;;;;;;57.20;2.97;;;;;;;;;;5072351;28;20452;-68
2023/05/04 11:24:56;;;;;;;56.90;2.77;;;;;;;;;;5072115;28;20470;-68
2023/05/04 11:27:27;;;;;;;56.90;2.60;;;;;;;;;;5072138;28;20457;-69
2023/05/04 11:29:57;;;;;;;59.00;3.00;;;;;;;;;;5071632;28;21017;-68
2023/05/04 11:32:34;;;;;;;56.60;2.23;;;;;;;;;;5071710;28;20569;-68
2023/05/04 11:35:02;;;;;;;56.77;2.50;;;;;;;;;;5071801;28;20931;-69
2023/05/04 11:37:31;;;;;;;56.40;2.10;;;;;;;;;;5071909;28;20451;-69
2023/05/04 11:39:58;;;;;;;56.80;2.47;;;;;;;;;;5071507;28;20497;-68
2023/05/04 11:42:26;;;;;;;60.20;4.67;;;;;;;;;;5072314;28;20444;-69
2023/05/04 11:44:55;;;;;;;57.40;2.80;;;;;;;;;;5071775;28;20449;-69
2023/05/04 11:47:23;;;;;;;58.00;2.17;;;;;;;;;;5072050;28;20534;-69
2023/05/04 11:49:50;;;;;;;57.83;3.67;;;;;;;;;;5071594;28;20459;-69
2023/05/04 11:52:17;;;;;;;56.57;2.17;;;;;;;;;;5071718;28;20489;-69
2023/05/04 11:54:55;;;;;;;56.77;2.30;;;;;;;;;;5071772;28;20454;-69
2023/05/04 11:57:22;;;;;;;56.77;2.33;;;;;;;;;;5070923;28;20474;-69
2023/05/04 11:59:49;;;;;;;57.00;2.57;;;;;;;;;;5071437;28;20825;-69
2023/05/04 12:02:17;;;;;;;56.20;2.00;;;;;;;;;;5071744;28;20606;-68
2023/05/04 12:04:44;;;;;;;56.60;2.00;;;;;;;;;;5071461;28;20447;-69
2023/05/04 12:07:11;;;;;;;56.80;2.57;;;;;;;;;;5071585;28;20450;-69
2023/05/04 12:09:46;;;;;;;57.37;2.50;;;;;;;;;;5071057;28;20474;-69
2023/05/04 12:12:13;;;;;;;56.70;2.20;;;;;;;;;;5071238;28;20486;-69
2023/05/04 12:14:51;;;;;;;57.67;2.70;;;;;;;;;;5071596;28;20470;-68
2023/05/04 12:17:19;;;;;;;56.50;2.53;;;;;;;;;;5071252;28;20458;-69
2023/05/04 12:19:50;;;;;;;56.53;2.10;;;;;;;;;;5070942;28;20471;-69
2023/05/04 12:22:17;;;;;;;58.90;2.77;;;;;;;;;;5071351;28;20632;-67
2023/05/04 12:24:46;;;;;;;56.57;2.33;;;;;;;;;;5071238;28;20914;-67
2023/05/04 12:27:13;;;;;;;56.53;2.13;;;;;;;;;;5071531;28;20804;-67
2023/05/04 12:29:41;;;;;;;57.50;2.60;;;;;;;;;;5070893;28;20528;-67
2023/05/04 12:32:08;;;;;;;56.90;2.50;;;;;;;;;;5071284;28;20516;-67
2023/05/04 12:34:35;;;;;;;56.50;2.43;;;;;;;;;;5071395;28;20447;-67
2023/05/04 12:37:02;;;;;;;57.00;2.63;;;;;;;;;;5071159;28;20523;-67
2023/05/04 12:39:31;;;;;;;56.17;2.10;;;;;;;;;;5070851;28;20463;-68
2023/05/04 12:42:00;;;;;;;56.90;2.47;;;;;;;;;;5071165;28;20512;-67
2023/05/04 12:44:28;;;;;;;56.17;2.20;;;;;;;;;;5071347;28;20530;-67
2023/05/04 12:46:55;;;;;;;56.70;2.30;;;;;;;;;;5071115;28;20558;-67
2023/05/04 12:49:23;;;;;;;56.60;2.50;;;;;;;;;;5070629;28;20461;-67
2023/05/04 12:51:50;;;;;;;57.30;2.30;;;;;;;;;;5071049;28;20956;-67
2023/05/04 12:54:17;;;;;;;56.87;3.00;;;;;;;;;;5071278;28;20811;-67
2023/05/04 12:56:44;;;;;;;56.80;2.73;;;;;;;;;;5071252;28;20452;-67
2023/05/04 12:59:13;;;;;;;56.77;2.60;;;;;;;;;;5070828;28;20449;-67
2023/05/04 13:01:40;;;;;;;56.33;2.30;;;;;;;;;;5071069;28;20795;-67
2023/05/04 13:04:07;;;;;;;57.10;2.83;;;;;;;;;;5070989;28;20493;-68
2023/05/04 13:06:35;;;;;;;56.87;2.83;;;;;;;;;;5071219;28;20530;-68
2023/05/04 13:09:04;;;;;;;56.50;2.70;;;;;;;;;;5072568;28;20528;-68
2023/05/04 13:11:31;;;;;;;55.97;2.07;;;;;;;;;;5074478;28;20953;-67
2023/05/04 13:13:58;;;;;;;56.50;2.60;;;;;;;;;;5074540;28;20449;-68
2023/05/04 13:16:29;;;;;;;56.37;2.50;;;;;;;;;;5074459;28;20435;-68
2023/05/04 13:18:56;;;;;;;56.20;2.17;;;;;;;;;;5074047;28;20516;-67
2023/05/04 13:21:23;;;;;;;56.47;2.50;;;;;;;;;;5074473;28;20543;-67
2023/05/04 13:23:51;;;;;;;58.50;2.70;;;;;;;;;;5074455;28;20483;-68
2023/05/04 13:26:18;;;;;;;56.37;2.50;;;;;;;;;;5074642;28;20447;-68
2023/05/04 13:28:45;;;;;;;56.90;2.67;;;;;;;;;;5073940;28;20450;-68
2023/05/04 13:31:12;;;;;;;57.10;3.10;;;;;;;;;;5073994;28;20849;-68
2023/05/04 13:33:41;;;;;;;57.30;2.07;;;;;;;;;;5074436;28;20443;-68
2023/05/04 13:36:08;;;;;;;56.40;2.70;;;;;;;;;;5074077;28;20825;-68
2023/05/04 13:38:35;;;;;;;56.90;2.97;;;;;;;;;;5073860;28;20451;-68
2023/05/04 13:41:02;;;;;;;56.97;2.77;;;;;;;;;;5074032;28;20463;-68
2023/05/04 13:43:30;;;;;;;56.50;2.30;;;;;;;;;;5074028;28;20475;-68
2023/05/04 13:45:57;;;;;;;56.90;2.63;;;;;;;;;;5073758;28;20936;-68
2023/05/04 13:48:25;;;;;;;58.17;3.70;;;;;;;;;;5074149;28;20454;-68
2023/05/04 13:50:54;;;;;;;56.80;2.53;;;;;;;;;;5073945;28;20467;-68
2023/05/04 13:53:22;;;;;;;56.17;2.20;;;;;;;;;;5073894;28;20447;-68
2023/05/04 13:55:49;;;;;;;56.80;2.83;;;;;;;;;;5073888;28;20447;-68
2023/05/04 13:58:16;;;;;;;56.80;2.87;;;;;;;;;;5073564;28;20944;-68
2023/05/04 14:00:43;;;;;;;56.53;2.40;;;;;;;;;;5073511;28;20467;-68
2023/05/04 14:03:10;;;;;;;56.80;2.33;;;;;;;;;;5073711;28;20498;-68
2023/05/04 14:05:37;;;;;;;56.50;2.47;;;;;;;;;;5073726;28;20820;-68
2023/05/04 14:08:06;;;;;;;56.30;2.23;;;;;;;;;;5073784;28;20448;-68
2023/05/04 14:10:33;;;;;;;56.07;2.23;;;;;;;;;;5073581;28;20471;-68
2023/05/04 14:13:00;;;;;;;74.73;3.33;;;;;;;;;;5073307;28;20800;-68
2023/05/04 14:15:27;;;;;;;56.37;2.13;;;;;;;;;;5073194;28;20546;-68
2023/05/04 14:17:54;;;;;;;56.37;2.47;;;;;;;;;;5073255;28;20482;-68
2023/05/04 14:20:21;;;;;;;56.47;2.20;;;;;;;;;;5072354;28;20573;-68
2023/05/04 14:22:49;;;;;;;57.63;3.20;;;;;;;;;;5073214;28;20586;-68
2023/05/04 14:25:17;;;;;;;57.73;2.43;;;;;;;;;;5073141;28;20459;-68
2023/05/04 14:27:44;;;;;;;56.80;2.70;;;;;;;;;;5073395;28;20451;-68
2023/05/04 14:30:12;;;;;;;58.00;2.80;;;;;;;;;;5072873;28;20575;-68
2023/05/04 14:32:40;;;;;;;56.70;2.50;;;;;;;;;;5073106;28;20529;-68
2023/05/04 14:35:09;;;;;;;57.07;2.83;;;;;;;;;;5073192;28;20549;-68